Aberdeen Regional Airport Aberdeen US
ICAO: KABR
IATA: ABR
Category: Medium
Scheduled Services: Yes

Elevation: 1302 ft
TransAlt. 18000 ft.

Airport Communications:
ASOS:125.875
MINNEAPOLIS CNTR:120.6
CTAF:122.7
HURON RDO:122.4
UNICOM:122.95

KABR Zoom In..

Runways:

(A) RW 13 length 6901 ft width 100 ft
---- / hdg 128

(B) RW 17 length 5500 ft width 100 ft
---- / hdg 173

(C) RW 31 length 6901 ft width 100 ft
ILS 109.90 / hdg 308

(D) RW 35 length 5500 ft width 100 ft
---- / hdg 353

Location; KABR
Day. 23 / Time. 15.32 Zulu
* Altimeter: 30.09
* Temperature: -06° c. -21.2°f.
* Wind from: 220° Speed 06 kn.
Dewpoint: -07° c.
Visibility: 2 Statute Miles.
Clouds: Overcast 300 ft.
Conditions: Mist.

KABR 231532Z AUTO 22006KT 2SM BR OVC003 M06/M07 A3009 RMK AO2 SNE1456 P0000 T10611072


Wind From 220°
Speed 06 kn.

YouTube Music Video
 
jpsmedia.com for Web Design  worldairports.se 2018   terms of use